sensor_id;sensor_type;location;lat;lon;timestamp;P1;durP1;ratioP1;P2;durP2;ratioP2
13122;SDS011;6627;50.920;12.050;2023-07-20T00:01:05;7.50;;;4.57;;
13122;SDS011;6627;50.920;12.050;2023-07-20T00:03:45;7.03;;;4.60;;
13122;SDS011;6627;50.920;12.050;2023-07-20T00:06:22;8.10;;;4.23;;
13122;SDS011;6627;50.920;12.050;2023-07-20T00:08:54;4.43;;;4.03;;
13122;SDS011;6627;50.920;12.050;2023-07-20T00:11:25;7.20;;;4.50;;
13122;SDS011;6627;50.920;12.050;2023-07-20T00:13:56;5.07;;;4.30;;
13122;SDS011;6627;50.920;12.050;2023-07-20T00:16:25;7.03;;;4.60;;
13122;SDS011;6627;50.920;12.050;2023-07-20T00:18:59;6.90;;;5.03;;
13122;SDS011;6627;50.920;12.050;2023-07-20T00:21:31;5.97;;;5.10;;
13122;SDS011;6627;50.920;12.050;2023-07-20T00:24:01;9.63;;;5.70;;
13122;SDS011;6627;50.920;12.050;2023-07-20T00:26:29;10.00;;;5.80;;
13122;SDS011;6627;50.920;12.050;2023-07-20T00:28:58;7.40;;;5.90;;
13122;SDS011;6627;50.920;12.050;2023-07-20T00:31:27;11.57;;;5.70;;
13122;SDS011;6627;50.920;12.050;2023-07-20T00:33:56;12.07;;;6.27;;
13122;SDS011;6627;50.920;12.050;2023-07-20T00:36:25;6.50;;;5.90;;
13122;SDS011;6627;50.920;12.050;2023-07-20T00:38:55;7.93;;;6.37;;
13122;SDS011;6627;50.920;12.050;2023-07-20T00:41:25;9.53;;;6.50;;
13122;SDS011;6627;50.920;12.050;2023-07-20T00:43:55;6.47;;;5.87;;
13122;SDS011;6627;50.920;12.050;2023-07-20T00:46:24;6.83;;;5.90;;
13122;SDS011;6627;50.920;12.050;2023-07-20T00:48:54;7.37;;;6.70;;
13122;SDS011;6627;50.920;12.050;2023-07-20T00:51:22;7.43;;;6.07;;
13122;SDS011;6627;50.920;12.050;2023-07-20T00:53:52;8.37;;;6.07;;
13122;SDS011;6627;50.920;12.050;2023-07-20T00:56:27;6.80;;;6.10;;
13122;SDS011;6627;50.920;12.050;2023-07-20T00:58:55;6.93;;;6.33;;
13122;SDS011;6627;50.920;12.050;2023-07-20T01:01:30;6.67;;;6.07;;
13122;SDS011;6627;50.920;12.050;2023-07-20T01:03:59;6.90;;;6.20;;
13122;SDS011;6627;50.920;12.050;2023-07-20T01:06:29;6.90;;;5.93;;
13122;SDS011;6627;50.920;12.050;2023-07-20T01:09:23;6.83;;;5.60;;
13122;SDS011;6627;50.920;12.050;2023-07-20T01:12:02;7.97;;;6.20;;
13122;SDS011;6627;50.920;12.050;2023-07-20T01:14:35;6.83;;;6.20;;
13122;SDS011;6627;50.920;12.050;2023-07-20T01:17:05;5.97;;;5.43;;
13122;SDS011;6627;50.920;12.050;2023-07-20T01:19:34;7.60;;;6.30;;
13122;SDS011;6627;50.920;12.050;2023-07-20T01:22:03;9.17;;;6.30;;
13122;SDS011;6627;50.920;12.050;2023-07-20T01:24:51;7.90;;;6.23;;
13122;SDS011;6627;50.920;12.050;2023-07-20T01:27:52;9.47;;;6.60;;
13122;SDS011;6627;50.920;12.050;2023-07-20T01:30:59;10.83;;;6.30;;
13122;SDS011;6627;50.920;12.050;2023-07-20T01:34:11;7.60;;;6.27;;
13122;SDS011;6627;50.920;12.050;2023-07-20T01:37:00;9.40;;;6.67;;
13122;SDS011;6627;50.920;12.050;2023-07-20T01:39:48;8.43;;;6.70;;
13122;SDS011;6627;50.920;12.050;2023-07-20T01:42:18;7.57;;;6.93;;
13122;SDS011;6627;50.920;12.050;2023-07-20T01:44:50;9.37;;;7.43;;
13122;SDS011;6627;50.920;12.050;2023-07-20T01:47:21;11.53;;;7.57;;
13122;SDS011;6627;50.920;12.050;2023-07-20T01:49:55;9.87;;;7.63;;
13122;SDS011;6627;50.920;12.050;2023-07-20T01:52:25;10.17;;;7.80;;
13122;SDS011;6627;50.920;12.050;2023-07-20T01:55:00;8.73;;;7.83;;
13122;SDS011;6627;50.920;12.050;2023-07-20T01:57:28;10.40;;;7.80;;
13122;SDS011;6627;50.920;12.050;2023-07-20T01:59:56;11.07;;;8.37;;
13122;SDS011;6627;50.920;12.050;2023-07-20T02:02:26;11.37;;;8.67;;
13122;SDS011;6627;50.920;12.050;2023-07-20T02:04:56;8.90;;;8.03;;
13122;SDS011;6627;50.920;12.050;2023-07-20T02:07:24;10.43;;;8.50;;
13122;SDS011;6627;50.920;12.050;2023-07-20T02:09:52;11.20;;;7.90;;
13122;SDS011;6627;50.920;12.050;2023-07-20T02:12:19;8.10;;;7.30;;
13122;SDS011;6627;50.920;12.050;2023-07-20T02:14:47;11.07;;;7.37;;
13122;SDS011;6627;50.920;12.050;2023-07-20T02:17:16;9.27;;;8.30;;
13122;SDS011;6627;50.920;12.050;2023-07-20T02:19:44;9.63;;;8.53;;
13122;SDS011;6627;50.920;12.050;2023-07-20T02:22:16;9.30;;;7.60;;
13122;SDS011;6627;50.920;12.050;2023-07-20T02:24:44;11.27;;;7.83;;
13122;SDS011;6627;50.920;12.050;2023-07-20T02:27:12;9.13;;;8.27;;
13122;SDS011;6627;50.920;12.050;2023-07-20T02:29:40;9.23;;;8.10;;
13122;SDS011;6627;50.920;12.050;2023-07-20T02:32:08;8.70;;;7.90;;
13122;SDS011;6627;50.920;12.050;2023-07-20T02:34:38;16.87;;;8.67;;
13122;SDS011;6627;50.920;12.050;2023-07-20T02:37:05;9.70;;;7.87;;
13122;SDS011;6627;50.920;12.050;2023-07-20T02:39:34;8.90;;;7.83;;
13122;SDS011;6627;50.920;12.050;2023-07-20T02:42:03;12.63;;;8.77;;
13122;SDS011;6627;50.920;12.050;2023-07-20T02:44:31;10.23;;;8.40;;
13122;SDS011;6627;50.920;12.050;2023-07-20T02:46:59;9.33;;;8.37;;
13122;SDS011;6627;50.920;12.050;2023-07-20T02:49:27;12.27;;;8.67;;
13122;SDS011;6627;50.920;12.050;2023-07-20T02:51:55;12.50;;;8.67;;
13122;SDS011;6627;50.920;12.050;2023-07-20T02:54:23;9.43;;;8.47;;
13122;SDS011;6627;50.920;12.050;2023-07-20T02:56:54;11.73;;;9.20;;
13122;SDS011;6627;50.920;12.050;2023-07-20T02:59:21;12.50;;;9.30;;
13122;SDS011;6627;50.920;12.050;2023-07-20T03:01:50;9.00;;;8.10;;
13122;SDS011;6627;50.920;12.050;2023-07-20T03:04:17;10.03;;;9.03;;
13122;SDS011;6627;50.920;12.050;2023-07-20T03:06:45;12.73;;;10.13;;
13122;SDS011;6627;50.920;12.050;2023-07-20T03:09:13;9.97;;;9.07;;
13122;SDS011;6627;50.920;12.050;2023-07-20T03:11:41;9.97;;;8.97;;
13122;SDS011;6627;50.920;12.050;2023-07-20T03:14:10;9.20;;;8.30;;
13122;SDS011;6627;50.920;12.050;2023-07-20T03:16:38;12.13;;;8.13;;
13122;SDS011;6627;50.920;12.050;2023-07-20T03:19:06;10.53;;;8.50;;
13122;SDS011;6627;50.920;12.050;2023-07-20T03:21:34;11.40;;;8.50;;
13122;SDS011;6627;50.920;12.050;2023-07-20T03:24:07;12.30;;;9.60;;
13122;SDS011;6627;50.920;12.050;2023-07-20T03:26:37;10.97;;;8.80;;
13122;SDS011;6627;50.920;12.050;2023-07-20T03:29:06;12.70;;;8.77;;
13122;SDS011;6627;50.920;12.050;2023-07-20T03:31:35;12.10;;;8.73;;
13122;SDS011;6627;50.920;12.050;2023-07-20T03:34:03;9.50;;;8.60;;
13122;SDS011;6627;50.920;12.050;2023-07-20T03:36:30;15.13;;;9.00;;
13122;SDS011;6627;50.920;12.050;2023-07-20T03:38:58;11.70;;;8.53;;
13122;SDS011;6627;50.920;12.050;2023-07-20T03:41:26;12.50;;;9.10;;
13122;SDS011;6627;50.920;12.050;2023-07-20T03:43:54;11.47;;;9.00;;
13122;SDS011;6627;50.920;12.050;2023-07-20T03:46:22;10.30;;;9.27;;
13122;SDS011;6627;50.920;12.050;2023-07-20T03:48:52;12.90;;;9.60;;
13122;SDS011;6627;50.920;12.050;2023-07-20T03:51:20;11.90;;;9.53;;
13122;SDS011;6627;50.920;12.050;2023-07-20T03:53:50;14.73;;;9.90;;
13122;SDS011;6627;50.920;12.050;2023-07-20T03:56:17;20.20;;;9.83;;
13122;SDS011;6627;50.920;12.050;2023-07-20T03:58:45;14.83;;;9.73;;
13122;SDS011;6627;50.920;12.050;2023-07-20T04:01:12;12.93;;;10.13;;
13122;SDS011;6627;50.920;12.050;2023-07-20T04:03:42;13.67;;;10.83;;
13122;SDS011;6627;50.920;12.050;2023-07-20T04:06:16;11.73;;;10.53;;
13122;SDS011;6627;50.920;12.050;2023-07-20T04:08:44;12.03;;;10.83;;
13122;SDS011;6627;50.920;12.050;2023-07-20T04:11:12;12.80;;;11.43;;
13122;SDS011;6627;50.920;12.050;2023-07-20T04:13:41;13.07;;;10.50;;
13122;SDS011;6627;50.920;12.050;2023-07-20T04:16:08;13.60;;;10.63;;
13122;SDS011;6627;50.920;12.050;2023-07-20T04:18:37;12.27;;;10.53;;
13122;SDS011;6627;50.920;12.050;2023-07-20T04:21:07;11.60;;;10.37;;
13122;SDS011;6627;50.920;12.050;2023-07-20T04:23:36;13.03;;;10.77;;
13122;SDS011;6627;50.920;12.050;2023-07-20T04:26:04;14.40;;;11.27;;
13122;SDS011;6627;50.920;12.050;2023-07-20T04:28:32;13.30;;;10.43;;
13122;SDS011;6627;50.920;12.050;2023-07-20T04:31:09;12.27;;;11.10;;
13122;SDS011;6627;50.920;12.050;2023-07-20T04:33:38;13.30;;;10.90;;
13122;SDS011;6627;50.920;12.050;2023-07-20T04:36:09;13.20;;;11.03;;
13122;SDS011;6627;50.920;12.050;2023-07-20T04:38:38;17.07;;;10.53;;
13122;SDS011;6627;50.920;12.050;2023-07-20T04:41:05;11.93;;;10.43;;
13122;SDS011;6627;50.920;12.050;2023-07-20T04:43:34;12.73;;;10.23;;
13122;SDS011;6627;50.920;12.050;2023-07-20T04:46:02;12.90;;;10.23;;
13122;SDS011;6627;50.920;12.050;2023-07-20T04:48:30;9.93;;;8.90;;
13122;SDS011;6627;50.920;12.050;2023-07-20T04:50:58;11.13;;;10.03;;
13122;SDS011;6627;50.920;12.050;2023-07-20T04:53:25;10.77;;;9.67;;
13122;SDS011;6627;50.920;12.050;2023-07-20T04:55:54;13.80;;;9.90;;
13122;SDS011;6627;50.920;12.050;2023-07-20T04:58:22;10.50;;;9.40;;
13122;SDS011;6627;50.920;12.050;2023-07-20T05:00:50;10.57;;;9.53;;
13122;SDS011;6627;50.920;12.050;2023-07-20T05:03:18;10.40;;;9.17;;
13122;SDS011;6627;50.920;12.050;2023-07-20T05:05:46;12.70;;;9.10;;
13122;SDS011;6627;50.920;12.050;2023-07-20T05:08:14;10.70;;;9.20;;
13122;SDS011;6627;50.920;12.050;2023-07-20T05:10:42;10.57;;;9.23;;
13122;SDS011;6627;50.920;12.050;2023-07-20T05:13:12;12.40;;;9.27;;
13122;SDS011;6627;50.920;12.050;2023-07-20T05:15:40;12.27;;;8.57;;
13122;SDS011;6627;50.920;12.050;2023-07-20T05:18:08;21.00;;;9.70;;
13122;SDS011;6627;50.920;12.050;2023-07-20T05:20:35;14.00;;;8.77;;
13122;SDS011;6627;50.920;12.050;2023-07-20T05:23:03;13.50;;;8.47;;
13122;SDS011;6627;50.920;12.050;2023-07-20T05:25:31;10.83;;;7.90;;
13122;SDS011;6627;50.920;12.050;2023-07-20T05:27:59;10.20;;;7.50;;
13122;SDS011;6627;50.920;12.050;2023-07-20T05:30:28;10.77;;;7.77;;
13122;SDS011;6627;50.920;12.050;2023-07-20T05:32:55;10.77;;;6.93;;
13122;SDS011;6627;50.920;12.050;2023-07-20T05:35:23;8.43;;;7.20;;
13122;SDS011;6627;50.920;12.050;2023-07-20T05:37:52;8.63;;;7.13;;
13122;SDS011;6627;50.920;12.050;2023-07-20T05:40:20;11.10;;;6.90;;
13122;SDS011;6627;50.920;12.050;2023-07-20T05:42:47;15.30;;;7.10;;
13122;SDS011;6627;50.920;12.050;2023-07-20T05:45:18;12.60;;;7.33;;
13122;SDS011;6627;50.920;12.050;2023-07-20T05:47:48;6.87;;;6.17;;
13122;SDS011;6627;50.920;12.050;2023-07-20T05:50:17;8.13;;;6.33;;
13122;SDS011;6627;50.920;12.050;2023-07-20T05:52:45;9.33;;;6.27;;
13122;SDS011;6627;50.920;12.050;2023-07-20T05:55:13;8.30;;;7.37;;
13122;SDS011;6627;50.920;12.050;2023-07-20T05:57:44;10.90;;;7.30;;
13122;SDS011;6627;50.920;12.050;2023-07-20T06:00:13;11.67;;;7.90;;
13122;SDS011;6627;50.920;12.050;2023-07-20T06:02:41;12.80;;;6.43;;
13122;SDS011;6627;50.920;12.050;2023-07-20T06:05:10;11.67;;;6.70;;
13122;SDS011;6627;50.920;12.050;2023-07-20T06:07:37;11.20;;;6.33;;
13122;SDS011;6627;50.920;12.050;2023-07-20T06:10:05;10.17;;;6.70;;
13122;SDS011;6627;50.920;12.050;2023-07-20T06:12:33;10.37;;;6.70;;
13122;SDS011;6627;50.920;12.050;2023-07-20T06:15:01;7.87;;;6.40;;
13122;SDS011;6627;50.920;12.050;2023-07-20T06:17:30;6.80;;;6.17;;
13122;SDS011;6627;50.920;12.050;2023-07-20T06:19:58;14.03;;;7.20;;
13122;SDS011;6627;50.920;12.050;2023-07-20T06:22:27;12.77;;;6.70;;
13122;SDS011;6627;50.920;12.050;2023-07-20T06:24:55;8.73;;;6.37;;
13122;SDS011;6627;50.920;12.050;2023-07-20T06:27:22;7.97;;;6.10;;
13122;SDS011;6627;50.920;12.050;2023-07-20T06:29:49;8.87;;;6.37;;
13122;SDS011;6627;50.920;12.050;2023-07-20T06:32:16;9.53;;;6.27;;
13122;SDS011;6627;50.920;12.050;2023-07-20T06:34:45;7.23;;;6.20;;
13122;SDS011;6627;50.920;12.050;2023-07-20T06:37:15;8.27;;;6.23;;
13122;SDS011;6627;50.920;12.050;2023-07-20T06:39:44;7.50;;;5.93;;
13122;SDS011;6627;50.920;12.050;2023-07-20T06:42:11;5.87;;;5.23;;
13122;SDS011;6627;50.920;12.050;2023-07-20T06:44:39;8.07;;;5.43;;
13122;SDS011;6627;50.920;12.050;2023-07-20T06:47:06;6.80;;;4.90;;
13122;SDS011;6627;50.920;12.050;2023-07-20T06:49:34;8.60;;;4.90;;
13122;SDS011;6627;50.920;12.050;2023-07-20T06:52:01;8.47;;;4.90;;
13122;SDS011;6627;50.920;12.050;2023-07-20T06:54:29;5.37;;;4.43;;
13122;SDS011;6627;50.920;12.050;2023-07-20T06:56:57;9.53;;;5.10;;
13122;SDS011;6627;50.920;12.050;2023-07-20T06:59:26;4.80;;;4.30;;
13122;SDS011;6627;50.920;12.050;2023-07-20T07:01:53;6.97;;;4.70;;
13122;SDS011;6627;50.920;12.050;2023-07-20T07:04:21;7.83;;;4.60;;
13122;SDS011;6627;50.920;12.050;2023-07-20T07:06:48;6.17;;;4.40;;
13122;SDS011;6627;50.920;12.050;2023-07-20T07:09:16;6.07;;;4.77;;
13122;SDS011;6627;50.920;12.050;2023-07-20T07:11:44;6.17;;;4.20;;
13122;SDS011;6627;50.920;12.050;2023-07-20T07:14:12;7.30;;;4.50;;
13122;SDS011;6627;50.920;12.050;2023-07-20T07:16:40;6.30;;;4.63;;
13122;SDS011;6627;50.920;12.050;2023-07-20T07:19:08;6.57;;;4.87;;
13122;SDS011;6627;50.920;12.050;2023-07-20T07:21:35;5.37;;;4.10;;
13122;SDS011;6627;50.920;12.050;2023-07-20T07:24:03;7.30;;;4.40;;
13122;SDS011;6627;50.920;12.050;2023-07-20T07:26:32;7.40;;;4.60;;
13122;SDS011;6627;50.920;12.050;2023-07-20T07:29:01;8.40;;;4.13;;
13122;SDS011;6627;50.920;12.050;2023-07-20T07:31:30;7.10;;;4.20;;
13122;SDS011;6627;50.920;12.050;2023-07-20T07:34:00;4.23;;;3.60;;
13122;SDS011;6627;50.920;12.050;2023-07-20T07:36:28;4.50;;;3.90;;
13122;SDS011;6627;50.920;12.050;2023-07-20T07:38:55;6.07;;;4.00;;
13122;SDS011;6627;50.920;12.050;2023-07-20T07:41:23;7.03;;;3.93;;
13122;SDS011;6627;50.920;12.050;2023-07-20T07:43:50;6.93;;;4.17;;
13122;SDS011;6627;50.920;12.050;2023-07-20T07:46:17;7.17;;;3.90;;
13122;SDS011;6627;50.920;12.050;2023-07-20T07:48:46;6.33;;;3.77;;
13122;SDS011;6627;50.920;12.050;2023-07-20T07:51:13;4.50;;;3.40;;
13122;SDS011;6627;50.920;12.050;2023-07-20T07:53:41;5.23;;;3.70;;
13122;SDS011;6627;50.920;12.050;2023-07-20T07:56:09;5.60;;;3.40;;
13122;SDS011;6627;50.920;12.050;2023-07-20T07:58:36;4.73;;;3.50;;
13122;SDS011;6627;50.920;12.050;2023-07-20T08:01:04;5.50;;;3.37;;
13122;SDS011;6627;50.920;12.050;2023-07-20T08:03:31;3.60;;;3.00;;
13122;SDS011;6627;50.920;12.050;2023-07-20T08:06:00;5.00;;;3.43;;
13122;SDS011;6627;50.920;12.050;2023-07-20T08:08:31;4.63;;;3.40;;
13122;SDS011;6627;50.920;12.050;2023-07-20T08:10:59;6.57;;;3.40;;
13122;SDS011;6627;50.920;12.050;2023-07-20T08:13:29;8.60;;;3.47;;
13122;SDS011;6627;50.920;12.050;2023-07-20T08:15:58;3.90;;;2.90;;
13122;SDS011;6627;50.920;12.050;2023-07-20T08:18:27;5.63;;;2.80;;
13122;SDS011;6627;50.920;12.050;2023-07-20T08:20:55;4.10;;;2.97;;
13122;SDS011;6627;50.920;12.050;2023-07-20T08:23:23;4.17;;;3.23;;
13122;SDS011;6627;50.920;12.050;2023-07-20T08:25:53;5.83;;;3.43;;
13122;SDS011;6627;50.920;12.050;2023-07-20T08:28:20;4.40;;;2.70;;
13122;SDS011;6627;50.920;12.050;2023-07-20T08:30:48;6.37;;;3.10;;
13122;SDS011;6627;50.920;12.050;2023-07-20T08:33:17;4.60;;;2.97;;
13122;SDS011;6627;50.920;12.050;2023-07-20T08:35:47;4.03;;;3.03;;
13122;SDS011;6627;50.920;12.050;2023-07-20T08:38:14;5.53;;;2.73;;
13122;SDS011;6627;50.920;12.050;2023-07-20T08:40:43;7.23;;;3.17;;
13122;SDS011;6627;50.920;12.050;2023-07-20T08:43:13;5.40;;;2.63;;
13122;SDS011;6627;50.920;12.050;2023-07-20T08:45:42;3.73;;;2.73;;
13122;SDS011;6627;50.920;12.050;2023-07-20T08:48:13;3.97;;;2.70;;
13122;SDS011;6627;50.920;12.050;2023-07-20T08:50:43;6.23;;;3.20;;
13122;SDS011;6627;50.920;12.050;2023-07-20T08:53:12;6.37;;;3.03;;
13122;SDS011;6627;50.920;12.050;2023-07-20T08:55:40;3.80;;;2.63;;
13122;SDS011;6627;50.920;12.050;2023-07-20T08:58:12;4.63;;;2.73;;
13122;SDS011;6627;50.920;12.050;2023-07-20T09:00:42;4.83;;;2.40;;
13122;SDS011;6627;50.920;12.050;2023-07-20T09:03:11;3.87;;;2.50;;
13122;SDS011;6627;50.920;12.050;2023-07-20T09:05:40;2.37;;;1.90;;
13122;SDS011;6627;50.920;12.050;2023-07-20T09:08:08;3.63;;;2.00;;
13122;SDS011;6627;50.920;12.050;2023-07-20T09:10:35;2.93;;;2.10;;
13122;SDS011;6627;50.920;12.050;2023-07-20T09:13:03;6.90;;;3.80;;
13122;SDS011;6627;50.920;12.050;2023-07-20T09:15:30;12.77;;;4.10;;
13122;SDS011;6627;50.920;12.050;2023-07-20T09:18:00;147.53;;;12.13;;
13122;SDS011;6627;50.920;12.050;2023-07-20T09:20:30;7.07;;;4.00;;
13122;SDS011;6627;50.920;12.050;2023-07-20T09:22:59;7.10;;;3.90;;
13122;SDS011;6627;50.920;12.050;2023-07-20T09:25:31;6.13;;;3.93;;
13122;SDS011;6627;50.920;12.050;2023-07-20T09:28:01;4.57;;;4.00;;
13122;SDS011;6627;50.920;12.050;2023-07-20T09:30:31;5.60;;;3.90;;
13122;SDS011;6627;50.920;12.050;2023-07-20T09:32:58;5.27;;;3.97;;
13122;SDS011;6627;50.920;12.050;2023-07-20T09:35:26;5.77;;;3.80;;
13122;SDS011;6627;50.920;12.050;2023-07-20T09:37:54;4.83;;;3.53;;
13122;SDS011;6627;50.920;12.050;2023-07-20T09:40:27;6.47;;;3.70;;
13122;SDS011;6627;50.920;12.050;2023-07-20T09:42:55;5.50;;;3.53;;
13122;SDS011;6627;50.920;12.050;2023-07-20T09:45:29;5.83;;;3.53;;
13122;SDS011;6627;50.920;12.050;2023-07-20T09:48:03;5.60;;;3.40;;
13122;SDS011;6627;50.920;12.050;2023-07-20T09:50:31;4.00;;;3.17;;
13122;SDS011;6627;50.920;12.050;2023-07-20T09:52:59;6.20;;;3.30;;
13122;SDS011;6627;50.920;12.050;2023-07-20T09:55:28;4.03;;;3.07;;
13122;SDS011;6627;50.920;12.050;2023-07-20T09:57:56;3.90;;;3.10;;
13122;SDS011;6627;50.920;12.050;2023-07-20T10:00:24;5.67;;;3.80;;
13122;SDS011;6627;50.920;12.050;2023-07-20T10:02:53;8.17;;;5.03;;
13122;SDS011;6627;50.920;12.050;2023-07-20T10:05:24;8.77;;;4.50;;
13122;SDS011;6627;50.920;12.050;2023-07-20T10:08:01;13.70;;;5.10;;
13122;SDS011;6627;50.920;12.050;2023-07-20T10:10:31;11.70;;;5.73;;
13122;SDS011;6627;50.920;12.050;2023-07-20T10:13:01;7.67;;;5.50;;
13122;SDS011;6627;50.920;12.050;2023-07-20T10:15:30;12.30;;;5.80;;
13122;SDS011;6627;50.920;12.050;2023-07-20T10:18:07;10.73;;;5.97;;
13122;SDS011;6627;50.920;12.050;2023-07-20T10:20:48;9.80;;;5.30;;
13122;SDS011;6627;50.920;12.050;2023-07-20T10:23:20;9.17;;;5.43;;
13122;SDS011;6627;50.920;12.050;2023-07-20T10:25:49;7.37;;;4.57;;
13122;SDS011;6627;50.920;12.050;2023-07-20T10:28:17;7.10;;;4.57;;
13122;SDS011;6627;50.920;12.050;2023-07-20T10:30:45;5.27;;;3.90;;
13122;SDS011;6627;50.920;12.050;2023-07-20T10:33:16;7.03;;;4.50;;
13122;SDS011;6627;50.920;12.050;2023-07-20T10:35:51;6.47;;;3.80;;
13122;SDS011;6627;50.920;12.050;2023-07-20T10:41:17;5.63;;;4.07;;
13122;SDS011;6627;50.920;12.050;2023-07-20T10:43:46;6.53;;;3.80;;
13122;SDS011;6627;50.920;12.050;2023-07-20T10:46:25;5.23;;;3.40;;
13122;SDS011;6627;50.920;12.050;2023-07-20T10:49:09;5.77;;;3.90;;
13122;SDS011;6627;50.920;12.050;2023-07-20T10:51:39;6.03;;;4.30;;
13122;SDS011;6627;50.920;12.050;2023-07-20T10:54:09;7.77;;;4.43;;
13122;SDS011;6627;50.920;12.050;2023-07-20T10:59:49;5.47;;;4.97;;
13122;SDS011;6627;50.920;12.050;2023-07-20T11:02:17;8.47;;;5.77;;
13122;SDS011;6627;50.920;12.050;2023-07-20T11:04:47;6.63;;;6.03;;
13122;SDS011;6627;50.920;12.050;2023-07-20T11:07:16;6.43;;;5.80;;
13122;SDS011;6627;50.920;12.050;2023-07-20T11:10:12;8.30;;;5.80;;
13122;SDS011;6627;50.920;12.050;2023-07-20T11:12:41;6.07;;;5.47;;
13122;SDS011;6627;50.920;12.050;2023-07-20T11:15:44;7.63;;;5.03;;
13122;SDS011;6627;50.920;12.050;2023-07-20T11:18:13;5.60;;;4.53;;
13122;SDS011;6627;50.920;12.050;2023-07-20T11:20:42;6.13;;;4.30;;
13122;SDS011;6627;50.920;12.050;2023-07-20T11:23:10;4.97;;;4.57;;
13122;SDS011;6627;50.920;12.050;2023-07-20T11:25:38;5.07;;;4.27;;
13122;SDS011;6627;50.920;12.050;2023-07-20T11:28:06;5.43;;;4.70;;
13122;SDS011;6627;50.920;12.050;2023-07-20T11:30:36;4.70;;;4.27;;
13122;SDS011;6627;50.920;12.050;2023-07-20T11:33:04;4.37;;;3.80;;
13122;SDS011;6627;50.920;12.050;2023-07-20T11:35:35;4.10;;;3.70;;
13122;SDS011;6627;50.920;12.050;2023-07-20T11:38:09;6.30;;;3.40;;
13122;SDS011;6627;50.920;12.050;2023-07-20T11:40:45;3.77;;;3.07;;
13122;SDS011;6627;50.920;12.050;2023-07-20T11:43:15;6.33;;;3.10;;
13122;SDS011;6627;50.920;12.050;2023-07-20T11:45:43;3.57;;;3.27;;
13122;SDS011;6627;50.920;12.050;2023-07-20T11:48:14;3.33;;;3.03;;
13122;SDS011;6627;50.920;12.050;2023-07-20T11:50:41;3.10;;;2.73;;
13122;SDS011;6627;50.920;12.050;2023-07-20T11:53:10;2.43;;;2.23;;
13122;SDS011;6627;50.920;12.050;2023-07-20T11:55:41;2.60;;;2.40;;
13122;SDS011;6627;50.920;12.050;2023-07-20T11:58:09;1.80;;;1.70;;
13122;SDS011;6627;50.920;12.050;2023-07-20T12:00:38;3.23;;;2.03;;
13122;SDS011;6627;50.920;12.050;2023-07-20T12:03:06;2.17;;;1.97;;
13122;SDS011;6627;50.920;12.050;2023-07-20T12:05:34;2.17;;;1.80;;
13122;SDS011;6627;50.920;12.050;2023-07-20T12:08:02;1.80;;;1.70;;
13122;SDS011;6627;50.920;12.050;2023-07-20T12:10:32;3.70;;;1.70;;
13122;SDS011;6627;50.920;12.050;2023-07-20T12:13:03;1.70;;;1.60;;
13122;SDS011;6627;50.920;12.050;2023-07-20T12:15:30;1.73;;;1.50;;
13122;SDS011;6627;50.920;12.050;2023-07-20T12:17:59;4.27;;;1.60;;
13122;SDS011;6627;50.920;12.050;2023-07-20T12:20:28;1.47;;;1.37;;
13122;SDS011;6627;50.920;12.050;2023-07-20T12:22:59;2.80;;;1.33;;
13122;SDS011;6627;50.920;12.050;2023-07-20T12:25:36;1.17;;;1.10;;
13122;SDS011;6627;50.920;12.050;2023-07-20T12:28:06;0.90;;;0.90;;
13122;SDS011;6627;50.920;12.050;2023-07-20T12:30:36;1.33;;;1.20;;
13122;SDS011;6627;50.920;12.050;2023-07-20T12:33:04;3.27;;;1.20;;
13122;SDS011;6627;50.920;12.050;2023-07-20T12:35:33;1.90;;;1.47;;
13122;SDS011;6627;50.920;12.050;2023-07-20T12:38:00;1.97;;;1.20;;
13122;SDS011;6627;50.920;12.050;2023-07-20T12:40:28;1.10;;;1.00;;
13122;SDS011;6627;50.920;12.050;2023-07-20T12:42:57;3.63;;;1.40;;
13122;SDS011;6627;50.920;12.050;2023-07-20T12:45:25;1.40;;;1.20;;
13122;SDS011;6627;50.920;12.050;2023-07-20T12:47:52;3.23;;;1.13;;
13122;SDS011;6627;50.920;12.050;2023-07-20T12:50:20;2.20;;;1.37;;
13122;SDS011;6627;50.920;12.050;2023-07-20T12:52:48;3.57;;;1.50;;
13122;SDS011;6627;50.920;12.050;2023-07-20T12:55:15;1.37;;;1.20;;
13122;SDS011;6627;50.920;12.050;2023-07-20T12:57:43;1.83;;;1.60;;
13122;SDS011;6627;50.920;12.050;2023-07-20T13:00:14;1.80;;;1.70;;
13122;SDS011;6627;50.920;12.050;2023-07-20T13:02:43;2.23;;;1.80;;
13122;SDS011;6627;50.920;12.050;2023-07-20T13:05:10;4.20;;;1.60;;
13122;SDS011;6627;50.920;12.050;2023-07-20T13:07:38;2.30;;;1.70;;
13122;SDS011;6627;50.920;12.050;2023-07-20T13:10:07;3.57;;;1.67;;
13122;SDS011;6627;50.920;12.050;2023-07-20T13:12:37;1.57;;;1.47;;
13122;SDS011;6627;50.920;12.050;2023-07-20T13:15:06;2.53;;;1.50;;
13122;SDS011;6627;50.920;12.050;2023-07-20T13:17:37;2.20;;;1.47;;
13122;SDS011;6627;50.920;12.050;2023-07-20T13:20:06;1.53;;;1.43;;
13122;SDS011;6627;50.920;12.050;2023-07-20T13:22:37;1.90;;;1.67;;
13122;SDS011;6627;50.920;12.050;2023-07-20T13:25:05;1.37;;;1.23;;
13122;SDS011;6627;50.920;12.050;2023-07-20T13:27:35;1.73;;;1.60;;
13122;SDS011;6627;50.920;12.050;2023-07-20T13:30:03;2.77;;;1.40;;
13122;SDS011;6627;50.920;12.050;2023-07-20T13:32:36;1.50;;;1.40;;
13122;SDS011;6627;50.920;12.050;2023-07-20T13:35:05;1.87;;;1.37;;
13122;SDS011;6627;50.920;12.050;2023-07-20T13:37:34;1.53;;;1.43;;
13122;SDS011;6627;50.920;12.050;2023-07-20T13:40:01;1.53;;;1.40;;
13122;SDS011;6627;50.920;12.050;2023-07-20T13:42:31;1.53;;;1.30;;
13122;SDS011;6627;50.920;12.050;2023-07-20T13:44:58;2.13;;;1.40;;
13122;SDS011;6627;50.920;12.050;2023-07-20T13:47:26;1.40;;;1.30;;
13122;SDS011;6627;50.920;12.050;2023-07-20T13:49:55;2.00;;;1.40;;
13122;SDS011;6627;50.920;12.050;2023-07-20T13:52:22;4.40;;;1.40;;
13122;SDS011;6627;50.920;12.050;2023-07-20T13:54:49;1.60;;;1.50;;
13122;SDS011;6627;50.920;12.050;2023-07-20T13:57:17;1.90;;;1.33;;
13122;SDS011;6627;50.920;12.050;2023-07-20T13:59:44;1.70;;;1.23;;
13122;SDS011;6627;50.920;12.050;2023-07-20T14:02:13;2.43;;;1.37;;
13122;SDS011;6627;50.920;12.050;2023-07-20T14:04:41;2.00;;;1.30;;
13122;SDS011;6627;50.920;12.050;2023-07-20T14:07:14;2.93;;;1.57;;
13122;SDS011;6627;50.920;12.050;2023-07-20T14:09:42;2.53;;;1.20;;
13122;SDS011;6627;50.920;12.050;2023-07-20T14:12:10;1.67;;;1.20;;
13122;SDS011;6627;50.920;12.050;2023-07-20T14:14:40;3.70;;;1.70;;
13122;SDS011;6627;50.920;12.050;2023-07-20T14:17:10;3.13;;;1.30;;
13122;SDS011;6627;50.920;12.050;2023-07-20T14:19:38;1.40;;;1.30;;
13122;SDS011;6627;50.920;12.050;2023-07-20T14:22:07;2.27;;;1.30;;
13122;SDS011;6627;50.920;12.050;2023-07-20T14:24:40;2.23;;;1.30;;
13122;SDS011;6627;50.920;12.050;2023-07-20T14:27:08;1.40;;;1.30;;
13122;SDS011;6627;50.920;12.050;2023-07-20T14:29:38;1.57;;;1.47;;
13122;SDS011;6627;50.920;12.050;2023-07-20T14:32:07;2.37;;;1.50;;
13122;SDS011;6627;50.920;12.050;2023-07-20T14:34:34;2.63;;;1.30;;
13122;SDS011;6627;50.920;12.050;2023-07-20T14:37:01;1.67;;;1.20;;
13122;SDS011;6627;50.920;12.050;2023-07-20T14:39:30;2.27;;;1.00;;
13122;SDS011;6627;50.920;12.050;2023-07-20T14:41:58;1.50;;;1.20;;
13122;SDS011;6627;50.920;12.050;2023-07-20T14:44:26;1.10;;;1.00;;
13122;SDS011;6627;50.920;12.050;2023-07-20T14:46:53;1.10;;;1.10;;
13122;SDS011;6627;50.920;12.050;2023-07-20T14:49:21;1.13;;;1.10;;
13122;SDS011;6627;50.920;12.050;2023-07-20T14:51:49;3.00;;;1.30;;
13122;SDS011;6627;50.920;12.050;2023-07-20T14:54:18;1.30;;;1.00;;
13122;SDS011;6627;50.920;12.050;2023-07-20T14:56:49;1.70;;;1.10;;
13122;SDS011;6627;50.920;12.050;2023-07-20T14:59:19;1.13;;;1.07;;
13122;SDS011;6627;50.920;12.050;2023-07-20T15:01:47;1.40;;;1.30;;
13122;SDS011;6627;50.920;12.050;2023-07-20T15:04:15;2.40;;;1.00;;